Time;durP1;ratioP1;P1;durP2;ratioP2;P2;SDS_P1;SDS_P2;PMS_P1;PMS_P2;Temp;Humidity;BMP_temperature;BMP_pressure;BME280_temperature;BME280_humidity;BME280_pressure;Samples;Min_cycle;Max_cycle;Signal;HPM_P1;HPM_P2
2020/12/28 00:00:52;;;;;;;31.30;15.23;;;;;;;0.79;80.49;98751.41;1763223;80;21599;-74
2020/12/28 00:03:17;;;;;;;29.10;14.20;;;;;;;0.76;80.63;98743.87;1759400;80;22581;-77
2020/12/28 00:05:43;;;;;;;29.97;15.90;;;;;;;0.79;80.58;98744.91;1766870;80;21158;-72
2020/12/28 00:08:09;;;;;;;32.23;15.50;;;;;;;0.80;80.69;98723.19;1761997;80;20974;-72
2020/12/28 00:10:34;;;;;;;29.13;14.97;;;;;;;0.79;80.76;98716.33;1763612;80;25850;-71
2020/12/28 00:13:01;;;;;;;28.17;14.10;;;;;;;0.77;81.12;98719.55;1757964;80;22346;-73
2020/12/28 00:15:28;;;;;;;31.00;15.25;;;;;;;0.74;81.32;98725.00;1764168;80;21129;-72
2020/12/28 00:17:56;;;;;;;31.05;15.40;;;;;;;0.74;81.47;98722.41;1762490;80;21249;-73
2020/12/28 00:20:24;;;;;;;28.10;14.38;;;;;;;0.82;81.21;98714.77;1763468;80;21207;-71
2020/12/28 00:22:50;;;;;;;27.60;13.78;;;;;;;0.86;81.33;98723.97;1765658;80;21625;-74
2020/12/28 00:25:24;;;;;;;26.87;13.60;;;;;;;0.94;80.95;98716.34;1763044;80;22309;-74
2020/12/28 00:27:50;;;;;;;30.32;14.43;;;;;;;1.05;80.74;98710.23;1758237;80;22629;-71
2020/12/28 00:30:15;;;;;;;27.22;14.53;;;;;;;1.01;80.70;98708.38;1755379;80;21207;-72
2020/12/28 00:32:41;;;;;;;26.80;13.70;;;;;;;0.97;80.84;98712.18;1763070;80;20954;-70
2020/12/28 00:35:08;;;;;;;26.57;13.40;;;;;;;0.99;80.93;98703.77;1766896;80;26761;-70
2020/12/28 00:37:34;;;;;;;28.40;14.28;;;;;;;0.99;81.01;98689.95;1760292;80;21209;-70
2020/12/28 00:40:00;;;;;;;29.60;15.00;;;;;;;1.04;80.99;98679.98;1763150;80;21271;-71
2020/12/28 00:42:25;;;;;;;28.65;14.43;;;;;;;1.02;81.26;98687.09;1762439;80;21516;-79
2020/12/28 00:44:51;;;;;;;26.53;13.87;;;;;;;1.02;81.28;98685.31;1762710;80;21673;-74
2020/12/28 00:47:17;;;;;;;24.23;13.53;;;;;;;1.02;81.29;98672.31;1748673;80;23935;-73
2020/12/28 00:49:43;;;;;;;29.27;14.53;;;;;;;1.05;81.37;98662.95;1758485;80;21227;-73
2020/12/28 00:52:09;;;;;;;27.30;14.23;;;;;;;1.05;81.39;98669.45;1756565;80;21431;-74
2020/12/28 00:54:35;;;;;;;24.73;12.67;;;;;;;1.05;81.58;98661.65;1763330;80;20966;-72
2020/12/28 00:57:04;;;;;;;25.93;13.43;;;;;;;1.05;81.62;98656.45;1761232;80;20967;-72
2020/12/28 00:59:29;;;;;;;25.02;13.10;;;;;;;1.11;81.70;98658.20;1759113;80;21566;-72
2020/12/28 01:01:56;;;;;;;25.13;13.77;;;;;;;1.11;81.74;98653.81;1760893;80;24221;-73
2020/12/28 01:04:22;;;;;;;23.62;12.50;;;;;;;1.17;81.74;98665.47;1759167;80;21494;-71
2020/12/28 01:06:48;;;;;;;24.63;12.47;;;;;;;1.20;81.67;98658.70;1763212;80;21594;-72
2020/12/28 01:09:14;;;;;;;23.37;13.17;;;;;;;1.17;81.69;98649.87;1758062;80;20891;-73
2020/12/28 01:11:40;;;;;;;26.95;13.32;;;;;;;1.22;81.81;98647.68;1764314;80;21101;-73
2020/12/28 01:14:05;;;;;;;23.93;13.17;;;;;;;1.18;82.04;98637.19;1756303;80;24764;-75
2020/12/28 01:16:31;;;;;;;22.00;12.73;;;;;;;1.15;82.25;98630.95;1762309;80;21203;-72
2020/12/28 01:18:57;;;;;;;25.50;13.77;;;;;;;1.16;82.40;98639.11;1757958;80;22509;-73
2020/12/28 01:21:23;;;;;;;25.00;13.77;;;;;;;1.23;82.38;98636.34;1761102;80;20962;-73
2020/12/28 01:23:49;;;;;;;26.17;13.00;;;;;;;1.24;82.30;98626.26;1754843;80;21178;-71
2020/12/28 01:26:16;;;;;;;24.50;12.57;;;;;;;1.34;82.07;98624.50;1758852;80;25248;-71
2020/12/28 01:28:42;;;;;;;26.23;13.62;;;;;;;1.38;82.01;98629.79;1759125;80;21217;-71
2020/12/28 01:31:07;;;;;;;23.20;12.70;;;;;;;1.40;82.13;98612.75;1765181;80;21630;-73
2020/12/28 01:33:34;;;;;;;24.27;13.23;;;;;;;1.45;81.97;98616.25;1762250;80;21688;-73
2020/12/28 01:36:02;;;;;;;22.82;12.00;;;;;;;1.49;81.97;98611.09;1756607;80;21121;-72
2020/12/28 01:38:28;;;;;;;;;;;;;;;1.58;81.58;98595.97;1763371;80;21158;-71
2020/12/28 01:40:53;;;;;;;21.27;12.25;;;;;;;1.60;81.56;98603.98;1761827;80;21199;-72
2020/12/28 01:43:19;;;;;;;22.60;12.93;;;;;;;1.66;81.46;98594.79;1762667;80;22262;-71
2020/12/28 01:45:45;;;;;;;26.33;13.17;;;;;;;1.69;81.40;98592.41;1760977;80;21546;-70
2020/12/28 01:48:11;;;;;;;24.03;12.93;;;;;;;1.75;81.13;98575.75;1752844;80;26726;-70
2020/12/28 01:50:37;;;;;;;24.53;12.93;;;;;;;1.82;81.04;98566.92;1745131;80;23844;-71
2020/12/28 01:53:03;;;;;;;24.77;13.88;;;;;;;1.84;80.96;98564.19;1746116;80;21595;-70
2020/12/28 01:55:30;;;;;;;23.43;13.37;;;;;;;1.78;81.10;98558.55;1744143;80;22042;-71
2020/12/28 01:57:56;;;;;;;22.07;13.03;;;;;;;1.83;81.12;98552.13;1742765;80;21220;-71
2020/12/28 02:00:22;;;;;;;24.55;13.68;;;;;;;1.84;81.04;98544.66;1745744;80;26853;-71
2020/12/28 02:02:48;;;;;;;25.07;14.07;;;;;;;1.75;81.32;98538.02;1741907;80;22792;-70
2020/12/28 02:05:13;;;;;;;22.43;13.27;;;;;;;1.69;81.67;98521.66;1744679;80;21585;-70
2020/12/28 02:07:39;;;;;;;22.47;13.17;;;;;;;1.70;81.86;98537.63;1745864;80;21711;-72
2020/12/28 02:10:08;;;;;;;23.42;12.47;;;;;;;1.69;81.99;98539.88;1748684;80;21416;-72
2020/12/28 02:12:38;;;;;;;23.38;13.60;;;;;;;1.74;81.89;98527.28;1740706;80;21663;-73
2020/12/28 02:15:04;;;;;;;22.73;12.70;;;;;;;1.73;82.04;98531.33;1742748;80;21109;-73
2020/12/28 02:17:30;;;;;;;24.02;13.48;;;;;;;1.87;81.72;98539.98;1743816;80;21179;-73
2020/12/28 02:19:56;;;;;;;23.43;13.40;;;;;;;1.94;81.58;98540.23;1743518;80;21126;-73
2020/12/28 02:22:22;;;;;;;19.80;11.93;;;;;;;1.99;81.46;98540.66;1746636;80;21683;-73
2020/12/28 02:24:47;;;;;;;23.30;13.17;;;;;;;1.92;81.71;98531.76;1742411;80;27787;-72
2020/12/28 02:27:13;;;;;;;21.65;13.05;;;;;;;2.03;81.62;98528.98;1747234;80;25731;-72
2020/12/28 02:29:39;;;;;;;24.53;13.73;;;;;;;2.04;81.73;98525.42;1744038;80;21380;-74
2020/12/28 02:32:04;;;;;;;26.83;13.93;;;;;;;2.09;81.57;98533.62;1744447;80;21662;-74
2020/12/28 02:34:30;;;;;;;22.43;13.67;;;;;;;2.08;81.81;98535.91;1742849;80;20986;-73
2020/12/28 02:36:56;;;;;;;21.70;13.13;;;;;;;2.09;81.89;98537.53;1742266;80;26829;-73
2020/12/28 02:39:22;;;;;;;21.93;13.83;;;;;;;2.13;81.83;98537.59;1741974;80;25153;-73
2020/12/28 02:41:47;;;;;;;24.90;12.83;;;;;;;2.15;81.88;98533.05;1743692;80;22273;-73
2020/12/28 02:44:13;;;;;;;21.47;12.33;;;;;;;2.17;81.79;98530.31;1742517;80;21056;-74
2020/12/28 02:46:39;;;;;;;22.10;13.50;;;;;;;2.24;81.73;98530.58;1744874;80;21700;-74
2020/12/28 02:49:05;;;;;;;21.87;13.38;;;;;;;2.22;81.74;98520.30;1748000;80;27273;-73
2020/12/28 02:51:30;;;;;;;22.47;13.60;;;;;;;2.29;81.64;98520.55;1746690;81;27113;-73
2020/12/28 02:53:56;;;;;;;22.93;13.67;;;;;;;2.27;81.64;98505.52;1749496;80;21440;-73
2020/12/28 02:56:22;;;;;;;23.97;13.17;;;;;;;2.30;81.67;98503.93;1742067;81;21629;-73
2020/12/28 02:58:47;;;;;;;25.00;13.80;;;;;;;2.31;81.64;98502.48;1744166;80;22741;-73
2020/12/28 03:01:13;;;;;;;22.90;13.10;;;;;;;2.29;81.83;98489.28;1744747;81;27783;-74
2020/12/28 03:03:39;;;;;;;21.50;13.40;;;;;;;2.35;81.79;98491.31;1740769;80;27701;-73
2020/12/28 03:06:04;;;;;;;22.70;13.47;;;;;;;2.43;81.53;98497.91;1746875;81;22488;-73
2020/12/28 03:08:30;;;;;;;25.07;13.17;;;;;;;2.51;81.18;98481.56;1743085;80;24571;-73
2020/12/28 03:10:56;;;;;;;21.70;12.70;;;;;;;2.68;80.94;98489.88;1745331;81;21060;-74
2020/12/28 03:13:22;;;;;;;22.82;13.53;;;;;;;2.70;80.60;98489.73;1749722;80;28149;-73
2020/12/28 03:15:47;;;;;;;21.25;12.40;;;;;;;2.63;80.71;98478.28;1749204;81;25547;-73
2020/12/28 03:18:13;;;;;;;21.70;13.10;;;;;;;2.69;80.74;98485.51;1747253;80;21341;-72
2020/12/28 03:20:39;;;;;;;18.33;12.53;;;;;;;2.66;80.69;98481.41;1746934;80;24500;-73
2020/12/28 03:23:05;;;;;;;19.50;12.37;;;;;;;2.64;80.89;98477.29;1742831;80;21589;-72
2020/12/28 03:25:30;;;;;;;24.47;13.40;;;;;;;2.63;81.02;98478.28;1746320;81;27825;-73
2020/12/28 03:27:56;;;;;;;19.37;12.53;;;;;;;2.62;81.01;98474.02;1744315;80;26597;-73
2020/12/28 03:30:22;;;;;;;21.67;13.23;;;;;;;2.60;81.17;98468.14;1746518;80;22239;-72
2020/12/28 03:32:48;;;;;;;23.00;13.20;;;;;;;2.56;81.34;98458.97;1746001;80;23605;-72
2020/12/28 03:35:13;;;;;;;19.73;12.43;;;;;;;2.50;81.51;98456.00;1742073;81;20903;-73
2020/12/28 03:37:39;;;;;;;19.17;12.60;;;;;;;2.49;81.64;98451.74;1749866;80;27846;-73
2020/12/28 03:40:05;;;;;;;20.90;12.98;;;;;;;2.40;82.04;98433.08;1738999;81;25616;-73
2020/12/28 03:42:30;;;;;;;21.10;13.63;;;;;;;2.32;82.50;98443.42;1744799;80;21185;-72
2020/12/28 03:44:56;;;;;;;20.43;12.30;;;;;;;2.39;82.36;98422.31;1742112;81;25553;-72
2020/12/28 03:47:22;;;;;;;20.50;12.53;;;;;;;2.37;82.52;98419.53;1747984;80;21662;-71
2020/12/28 03:49:48;;;;;;;20.80;12.43;;;;;;;2.37;82.53;98423.45;1744266;80;27216;-72
2020/12/28 03:52:14;;;;;;;18.48;12.00;;;;;;;2.36;82.73;98412.19;1742819;80;21185;-72
2020/12/28 03:54:40;;;;;;;20.70;13.00;;;;;;;2.30;83.07;98411.00;1744985;80;21203;-72
2020/12/28 03:57:05;;;;;;;20.80;12.70;;;;;;;2.32;83.12;98403.05;1744788;80;21028;-71
2020/12/28 03:59:32;;;;;;;22.30;12.33;;;;;;;2.33;83.11;98399.45;1742433;80;21037;-72
2020/12/28 04:01:58;;;;;;;20.57;11.50;;;;;;;2.34;83.27;98406.31;1743068;80;21264;-72
2020/12/28 04:04:24;;;;;;;22.27;12.82;;;;;;;2.35;83.33;98392.34;1742209;80;25589;-72
2020/12/28 04:06:50;;;;;;;18.20;12.00;;;;;;;2.39;83.27;98390.24;1743471;80;21370;-73
2020/12/28 04:09:15;;;;;;;23.97;12.70;;;;;;;2.37;83.46;98381.27;1744053;80;23535;-72
2020/12/28 04:11:41;;;;;;;19.23;12.20;;;;;;;2.38;83.53;98376.41;1741801;80;21061;-73
2020/12/28 04:14:07;;;;;;;20.43;12.23;;;;;;;2.34;83.79;98367.24;1743062;80;28293;-73
2020/12/28 04:16:32;;;;;;;19.65;12.15;;;;;;;2.25;84.31;98365.52;1744302;80;26281;-73
2020/12/28 04:18:58;;;;;;;20.13;12.60;;;;;;;2.30;84.31;98365.42;1744172;80;21871;-73
2020/12/28 04:21:24;;;;;;;18.30;11.67;;;;;;;2.37;84.20;98357.83;1743295;80;24492;-73
2020/12/28 04:23:51;;;;;;;21.03;12.03;;;;;;;2.45;84.08;98367.02;1747761;80;20964;-74
2020/12/28 04:26:16;;;;;;;19.93;11.53;;;;;;;2.44;84.26;98356.28;1745166;80;21234;-73
2020/12/28 04:28:42;;;;;;;18.20;11.30;;;;;;;2.47;84.10;98361.66;1747034;80;26655;-73
2020/12/28 04:31:10;;;;;;;20.40;12.97;;;;;;;2.51;84.14;98361.22;1745531;80;21374;-73
2020/12/28 04:33:37;;;;;;;21.45;12.82;;;;;;;2.50;84.24;98366.11;1742455;80;21243;-73
2020/12/28 04:36:03;;;;;;;21.00;12.27;;;;;;;2.46;84.34;98367.36;1743008;80;21223;-73
2020/12/28 04:38:29;;;;;;;19.35;12.13;;;;;;;2.43;84.64;98354.63;1746878;80;28529;-72
2020/12/28 04:40:54;;;;;;;20.43;12.25;;;;;;;2.52;84.44;98350.33;1744518;80;25154;-73
2020/12/28 04:43:20;;;;;;;20.67;12.07;;;;;;;2.47;84.83;98344.73;1745494;80;21251;-73
2020/12/28 04:45:46;;;;;;;21.93;12.43;;;;;;;2.45;84.99;98348.78;1747569;80;21061;-74
2020/12/28 04:48:12;;;;;;;19.47;12.13;;;;;;;2.48;84.95;98344.58;1745029;80;21022;-74
2020/12/28 04:50:38;;;;;;;20.08;11.68;;;;;;;2.51;84.99;98341.67;1741472;81;28361;-74
2020/12/28 04:53:05;;;;;;;22.75;12.47;;;;;;;2.49;85.13;98339.71;1741267;81;21154;-71
2020/12/28 04:55:30;;;;;;;21.12;11.85;;;;;;;2.43;85.62;98329.08;1744728;81;21180;-73
2020/12/28 04:57:57;;;;;;;23.27;12.83;;;;;;;2.50;85.60;98346.56;1743838;81;22553;-73
2020/12/28 05:00:23;;;;;;;21.33;12.95;;;;;;;2.50;85.71;98341.36;1742102;81;21652;-73
2020/12/28 05:02:49;;;;;;;23.23;13.07;;;;;;;2.51;85.78;98327.34;1743143;81;29793;-73
2020/12/28 05:05:14;;;;;;;21.30;13.13;;;;;;;2.56;86.02;98337.31;1738573;81;26088;-74
2020/12/28 05:07:50;;;;;;;23.77;13.60;;;;;;;2.55;86.02;98328.34;1744273;81;21557;-73
2020/12/28 05:10:23;;;;;;;22.45;12.95;;;;;;;2.60;86.00;98326.94;1739744;81;21503;-73
2020/12/28 05:12:49;;;;;;;21.90;13.38;;;;;;;2.63;85.97;98335.76;1735821;81;21193;-73
2020/12/28 05:15:15;;;;;;;21.80;13.03;;;;;;;2.68;85.85;98333.51;1736763;81;28367;-73
2020/12/28 05:17:41;;;;;;;24.92;14.07;;;;;;;2.65;86.20;98320.78;1742016;81;25707;-73
2020/12/28 05:20:06;;;;;;;19.73;12.47;;;;;;;2.70;86.09;98321.63;1741933;80;21330;-72
2020/12/28 05:22:32;;;;;;;20.00;12.77;;;;;;;2.69;86.19;98331.74;1741925;81;23930;-73
2020/12/28 05:24:58;;;;;;;21.20;13.07;;;;;;;2.65;86.50;98327.30;1742139;81;20947;-73
2020/12/28 05:27:24;;;;;;;22.95;13.45;;;;;;;2.72;86.29;98315.80;1740934;81;21188;-72
2020/12/28 05:29:50;;;;;;;20.65;13.05;;;;;;;2.69;86.56;98327.34;1738755;81;21638;-72
2020/12/28 05:32:16;;;;;;;24.37;13.63;;;;;;;2.73;86.56;98314.81;1743342;81;22004;-73
2020/12/28 05:34:46;;;;;;;22.30;13.60;;;;;;;2.76;86.59;98308.49;1743317;81;21233;-73
2020/12/28 05:37:13;;;;;;;19.25;12.23;;;;;;;2.80;86.52;98332.80;1743043;80;21098;-73
2020/12/28 05:39:43;;;;;;;20.25;13.10;;;;;;;2.77;86.54;98313.55;1739375;81;21130;-73
2020/12/28 05:42:10;;;;;;;23.87;13.88;;;;;;;2.83;86.63;98320.77;1741134;81;21182;-73
2020/12/28 05:44:44;;;;;;;20.70;12.05;;;;;;;2.93;86.41;98306.82;1743366;81;22216;-72
2020/12/28 05:47:13;;;;;;;24.27;13.58;;;;;;;3.01;86.01;98314.69;1737441;81;21185;-72
2020/12/28 05:49:41;;;;;;;21.57;12.98;;;;;;;2.95;86.18;98313.53;1741007;80;21188;-72
2020/12/28 05:52:09;;;;;;;19.32;12.65;;;;;;;2.89;86.54;98311.53;1742143;80;21644;-72
2020/12/28 05:54:35;;;;;;;;;;;;;;;2.91;86.61;98311.38;1747298;80;21197;-73
2020/12/28 05:57:01;;;;;;;18.55;11.12;;;;;;;2.88;86.75;98306.78;1741793;80;22045;-73
2020/12/28 05:59:27;;;;;;;22.52;12.95;;;;;;;2.84;86.96;98288.52;1746734;80;21472;-72
2020/12/28 06:01:52;;;;;;;19.17;12.97;;;;;;;2.84;86.95;98291.13;1747139;80;24665;-73
2020/12/28 06:04:19;;;;;;;18.10;12.10;;;;;;;2.83;87.18;98297.30;1734420;80;27570;-72
2020/12/28 06:06:45;;;;;;;21.25;13.25;;;;;;;2.86;86.97;98297.00;1740611;80;21207;-72
2020/12/28 06:09:18;;;;;;;22.82;12.68;;;;;;;2.92;86.84;98292.14;1742487;80;21227;-72
2020/12/28 06:11:45;;;;;;;20.52;12.50;;;;;;;2.85;87.06;98303.17;1744070;80;21217;-73
2020/12/28 06:14:18;;;;;;;23.05;13.72;;;;;;;2.90;87.09;98299.30;1743812;80;21169;-73
2020/12/28 06:16:43;;;;;;;24.55;14.05;;;;;;;2.90;87.15;98299.30;1742739;80;21174;-73
2020/12/28 06:19:23;;;;;;;21.65;13.43;;;;;;;2.92;87.11;98299.95;1751089;80;25058;-73
2020/12/28 06:21:49;;;;;;;24.92;14.58;;;;;;;2.97;86.99;98318.59;1744701;80;21638;-73
2020/12/28 06:24:30;;;;;;;21.57;13.60;;;;;;;2.99;86.91;98315.34;1747303;80;21153;-73
2020/12/28 06:27:09;;;;;;;27.30;14.07;;;;;;;2.94;87.30;98308.47;1745135;80;21203;-73
2020/12/28 06:29:37;;;;;;;20.15;12.78;;;;;;;2.90;87.44;98318.86;1745685;80;21216;-73
2020/12/28 06:32:15;;;;;;;25.45;14.47;;;;;;;2.84;87.79;98318.50;1747182;80;21196;-73
2020/12/28 06:34:44;;;;;;;24.98;13.85;;;;;;;2.82;88.06;98316.52;1746948;80;21283;-73
2020/12/28 06:37:09;;;;;;;22.95;14.18;;;;;;;2.86;87.96;98336.11;1742174;80;21660;-74
2020/12/28 06:39:35;;;;;;;25.47;14.90;;;;;;;2.91;87.97;98332.23;1744915;80;23780;-73
2020/12/28 06:42:12;;;;;;;29.23;15.43;;;;;;;2.95;87.67;98340.06;1743213;80;27807;-74
2020/12/28 06:44:38;;;;;;;24.25;14.45;;;;;;;2.96;87.52;98341.22;1744625;80;21176;-74
2020/12/28 06:47:16;;;;;;;22.25;15.18;;;;;;;2.89;87.79;98338.91;1744714;80;21215;-73
2020/12/28 06:49:43;;;;;;;23.30;14.18;;;;;;;2.91;87.88;98338.26;1746606;80;21198;-74
2020/12/28 06:52:08;;;;;;;24.95;13.58;;;;;;;2.94;87.90;98335.84;1743583;80;21244;-74
2020/12/28 06:54:34;;;;;;;25.62;14.07;;;;;;;2.85;88.13;98336.25;1747222;80;28470;-74
2020/12/28 06:57:04;;;;;;;24.27;15.43;;;;;;;2.88;88.02;98334.16;1746866;80;25903;-74
2020/12/28 06:59:30;;;;;;;26.52;14.58;;;;;;;2.86;88.29;98346.53;1751888;80;21196;-74
2020/12/28 07:01:59;;;;;;;23.73;14.00;;;;;;;2.92;88.15;98337.77;1744046;80;21127;-74
2020/12/28 07:04:25;;;;;;;22.42;15.28;;;;;;;3.05;87.80;98336.89;1741385;80;21927;-74
2020/12/28 07:07:00;;;;;;;23.83;14.23;;;;;;;3.09;87.52;98348.63;1744082;80;21186;-74
2020/12/28 07:09:26;;;;;;;22.98;14.55;;;;;;;3.06;87.48;98338.50;1746916;80;21263;-74
2020/12/28 07:11:52;;;;;;;25.80;14.70;;;;;;;3.08;87.56;98347.48;1748958;80;22241;-74
2020/12/28 07:14:21;;;;;;;24.30;14.63;;;;;;;3.06;87.62;98350.24;1745759;80;26556;-74
2020/12/28 07:16:55;;;;;;;25.88;15.35;;;;;;;3.03;87.69;98344.02;1749164;80;21253;-73
2020/12/28 07:19:21;;;;;;;24.23;14.38;;;;;;;3.07;87.79;98340.16;1743524;80;21897;-74
2020/12/28 07:21:47;;;;;;;23.18;14.65;;;;;;;3.11;87.48;98334.97;1743429;80;21172;-73
2020/12/28 07:24:13;;;;;;;22.52;14.20;;;;;;;3.05;87.63;98331.67;1746399;80;22061;-74
2020/12/28 07:26:40;;;;;;;26.67;14.80;;;;;;;3.07;87.63;98326.30;1743570;80;26414;-74
2020/12/28 07:29:12;;;;;;;25.80;14.30;;;;;;;3.06;87.71;98328.08;1746060;80;21632;-74
2020/12/28 07:31:38;;;;;;;22.00;13.80;;;;;;;3.13;87.70;98321.78;1742747;80;21251;-73
2020/12/28 07:34:04;;;;;;;23.92;14.25;;;;;;;3.07;87.89;98321.90;1748412;80;26685;-73
2020/12/28 07:36:30;;;;;;;24.10;14.75;;;;;;;3.09;87.85;98323.05;1746749;80;21719;-75
2020/12/28 07:38:55;;;;;;;21.37;13.80;;;;;;;3.11;87.97;98311.50;1744144;80;24990;-74
2020/12/28 07:41:24;;;;;;;22.13;14.60;;;;;;;3.11;87.90;98307.59;1746291;80;21733;-74
2020/12/28 07:43:56;;;;;;;22.75;14.07;;;;;;;2.98;87.89;98281.09;1749175;80;21687;-73
2020/12/28 07:46:38;;;;;;;21.02;13.98;;;;;;;3.08;88.01;98301.37;1743965;80;21225;-74
2020/12/28 07:49:21;;;;;;;21.45;14.20;;;;;;;3.09;88.05;98293.87;1749326;80;21260;-74
2020/12/28 07:52:17;;;;;;;23.73;14.43;;;;;;;3.03;88.29;98284.05;1742896;81;21520;-74
2020/12/28 07:55:18;;;;;;;22.22;14.43;;;;;;;3.03;88.52;98284.89;1749153;81;21196;-74
2020/12/28 07:58:13;;;;;;;21.27;13.35;;;;;;;3.03;88.72;98289.27;1742753;81;21186;-73
2020/12/28 08:00:49;;;;;;;22.13;13.80;;;;;;;3.10;88.48;98300.73;1745355;80;21193;-74
2020/12/28 08:03:37;;;;;;;20.70;14.07;;;;;;;3.11;88.61;98288.03;1747909;81;21216;-74
2020/12/28 08:06:08;;;;;;;22.58;14.28;;;;;;;3.20;88.38;98296.23;1745614;81;21233;-74
2020/12/28 08:08:34;;;;;;;21.50;14.07;;;;;;;3.25;88.13;98293.16;1721695;81;21657;-74
2020/12/28 08:11:02;;;;;;;20.57;14.07;;;;;;;3.34;87.84;98291.39;1743861;80;21245;-73
2020/12/28 08:13:34;;;;;;;21.55;14.13;;;;;;;3.36;87.74;98289.47;1750454;81;21142;-73
2020/12/28 08:16:16;;;;;;;27.52;15.05;;;;;;;3.28;87.96;98299.84;1752652;81;21351;-72
2020/12/28 08:18:51;;;;;;;21.48;13.45;;;;;;;3.32;87.93;98303.28;1750270;81;21235;-73
2020/12/28 08:21:17;;;;;;;23.20;14.83;;;;;;;3.40;87.79;98290.30;1750912;81;21153;-71
2020/12/28 08:23:56;;;;;;;19.87;13.60;;;;;;;3.47;87.64;98298.31;1749642;80;21121;-75
2020/12/28 08:26:27;;;;;;;22.02;14.05;;;;;;;3.55;87.49;98306.17;1738929;80;21209;-72
2020/12/28 08:28:55;;;;;;;22.87;14.38;;;;;;;3.62;87.31;98307.69;1746543;81;21976;-72
2020/12/28 08:31:33;;;;;;;21.62;14.65;;;;;;;3.76;87.12;98302.35;1751171;81;21204;-72
2020/12/28 08:34:05;;;;;;;20.40;13.90;;;;;;;3.87;86.45;98296.83;1753592;81;21233;-71
2020/12/28 08:36:32;;;;;;;27.10;13.78;;;;;;;3.92;86.25;98295.05;1745589;80;21201;-72
2020/12/28 08:38:58;;;;;;;23.23;13.57;;;;;;;3.93;86.14;98285.75;1747951;80;21220;-72
2020/12/28 08:41:24;;;;;;;18.75;13.13;;;;;;;3.98;86.13;98288.34;1740311;80;21309;-73
2020/12/28 08:43:49;;;;;;;19.00;13.33;;;;;;;3.97;86.01;98279.70;1756742;81;25623;-71
2020/12/28 08:46:17;;;;;;;20.73;13.23;;;;;;;4.01;85.89;98274.97;1751624;80;23725;-71
2020/12/28 08:48:44;;;;;;;;;;;;;;;4.06;85.79;98267.49;1746986;81;21217;-70
2020/12/28 08:51:19;;;;;;;18.90;12.88;;;;;;;4.09;85.69;98253.61;1748614;79;20284;-71
2020/12/28 08:53:50;;;;;;;23.83;14.40;;;;;;;4.09;85.78;98254.92;1754491;80;21618;-70
2020/12/28 08:56:19;;;;;;;20.97;13.40;;;;;;;4.06;85.93;98253.13;1751403;80;21539;-71
2020/12/28 08:58:44;;;;;;;19.35;12.88;;;;;;;4.09;85.98;98241.05;1752338;79;21595;-70
2020/12/28 09:01:10;;;;;;;19.52;12.73;;;;;;;4.20;85.78;98238.61;1750787;80;29211;-71
2020/12/28 09:03:36;;;;;;;20.88;12.90;;;;;;;4.16;85.78;98240.71;1750561;79;26762;-73
2020/12/28 09:06:06;;;;;;;19.75;13.40;;;;;;;4.14;85.87;98230.92;1750361;80;21340;-72
2020/12/28 09:08:31;;;;;;;22.20;13.00;;;;;;;4.20;85.78;98230.27;1751386;80;21615;-73
2020/12/28 09:10:57;;;;;;;19.27;13.30;;;;;;;4.23;85.71;98231.25;1750311;80;25289;-71
2020/12/28 09:13:24;;;;;;;18.75;12.75;;;;;;;4.29;85.78;98239.75;1752227;79;29505;-73
2020/12/28 09:15:50;;;;;;;18.57;12.68;;;;;;;4.29;85.67;98259.34;1750411;80;21276;-71
2020/12/28 09:18:15;;;;;;;18.07;13.13;;;;;;;4.39;85.48;98251.84;1748306;79;22240;-72
2020/12/28 09:20:41;;;;;;;17.70;12.37;;;;;;;4.39;85.18;98257.06;1752164;80;25418;-72
2020/12/28 09:23:07;;;;;;;21.63;13.40;;;;;;;4.42;85.07;98247.59;1747153;79;25717;-71
2020/12/28 09:25:33;;;;;;;17.73;12.25;;;;;;;4.43;85.03;98241.39;1750342;80;28411;-70
2020/12/28 09:27:58;;;;;;;20.08;12.88;;;;;;;4.44;85.06;98238.62;1753162;80;26887;-68
2020/12/28 09:30:24;;;;;;;18.20;12.70;;;;;;;4.41;85.11;98228.95;1750104;79;21851;-69
2020/12/28 09:32:50;;;;;;;17.92;12.95;;;;;;;4.42;85.24;98218.84;1754264;79;25390;-73
2020/12/28 09:35:18;;;;;;;19.80;13.10;;;;;;;4.48;85.10;98219.49;1750809;79;21545;-70
2020/12/28 09:37:44;;;;;;;18.42;11.97;;;;;;;4.49;85.27;98210.68;1752026;79;21205;-70
2020/12/28 09:40:10;;;;;;;19.25;13.55;;;;;;;4.52;85.24;98209.52;1751856;80;21218;-74
2020/12/28 09:42:35;;;;;;;18.75;13.13;;;;;;;4.58;85.20;98203.63;1750408;79;21964;-71
2020/12/28 09:45:01;;;;;;;17.57;12.53;;;;;;;4.73;84.83;98198.55;1750809;80;27092;-72
2020/12/28 09:47:27;;;;;;;18.50;11.53;;;;;;;4.86;84.49;98200.13;1711484;79;25991;-69
2020/12/28 09:49:53;;;;;;;19.32;13.30;;;;;;;4.83;84.39;98178.23;1751010;80;28269;-71
2020/12/28 09:52:19;;;;;;;16.77;11.93;;;;;;;4.93;84.21;98171.02;1747088;80;26831;-71
2020/12/28 09:54:44;;;;;;;18.57;12.10;;;;;;;5.04;84.03;98166.72;1744415;80;21866;-71
2020/12/28 09:57:10;;;;;;;17.27;11.75;;;;;;;5.01;83.90;98163.13;1747402;80;27046;-72
2020/12/28 09:59:37;;;;;;;17.52;12.28;;;;;;;5.03;83.88;98149.41;1743963;80;25164;-68
2020/12/28 10:02:04;;;;;;;17.37;11.70;;;;;;;5.05;83.80;98132.23;1744444;80;21228;-69
2020/12/28 10:04:30;;;;;;;16.50;11.70;;;;;;;4.99;84.02;98133.73;1742584;80;21658;-70
2020/12/28 10:06:56;;;;;;;19.07;11.45;;;;;;;4.96;84.18;98117.06;1741795;80;21868;-71
2020/12/28 10:09:21;;;;;;;16.30;11.00;;;;;;;5.00;84.27;98130.61;1743708;80;27077;-69
2020/12/28 10:11:47;;;;;;;18.92;11.90;;;;;;;5.13;83.98;98120.92;1747367;80;24570;-69
2020/12/28 10:14:13;;;;;;;17.32;11.65;;;;;;;5.08;84.12;98115.37;1746383;80;28290;-69
2020/12/28 10:16:39;;;;;;;18.00;11.60;;;;;;;5.17;84.14;98113.03;1742716;80;21658;-72
2020/12/28 10:19:05;;;;;;;15.98;11.18;;;;;;;5.16;84.15;98124.50;1744590;80;22999;-71
2020/12/28 10:21:31;;;;;;;17.50;11.38;;;;;;;5.15;84.17;98102.73;1745233;80;27115;-73
2020/12/28 10:23:57;;;;;;;16.67;11.48;;;;;;;5.17;84.32;98111.25;1745883;80;25316;-71
2020/12/28 10:26:26;;;;;;;16.30;11.00;;;;;;;5.13;84.51;98099.99;1743520;80;28264;-70
2020/12/28 10:28:53;;;;;;;15.00;10.08;;;;;;;5.15;84.53;98099.31;1743360;80;21202;-72
2020/12/28 10:31:19;;;;;;;17.00;10.25;;;;;;;5.18;84.51;98097.66;1744461;80;21206;-72
2020/12/28 10:33:46;;;;;;;14.87;9.78;;;;;;;5.16;84.68;98078.72;1745946;80;21255;-72
2020/12/28 10:36:20;;;;;;;17.02;9.80;;;;;;;5.18;84.64;98076.73;1744084;80;21685;-70
2020/12/28 10:38:49;;;;;;;13.80;9.43;;;;;;;5.16;84.84;98069.56;1746450;80;21216;-70
2020/12/28 10:41:15;;;;;;;14.20;9.25;;;;;;;5.17;84.81;98082.94;1743419;80;21224;-71
2020/12/28 10:43:41;;;;;;;14.43;9.35;;;;;;;5.22;84.84;98067.56;1745157;80;21939;-70
2020/12/28 10:46:08;;;;;;;14.33;9.60;;;;;;;5.23;84.75;98071.78;1741706;80;27141;-71
2020/12/28 10:48:34;;;;;;;15.32;9.33;;;;;;;5.24;84.69;98068.70;1745050;80;21224;-71
2020/12/28 10:51:00;;;;;;;15.55;9.73;;;;;;;5.33;84.41;98052.76;1748885;80;28499;-70
2020/12/28 10:53:26;;;;;;;13.72;9.28;;;;;;;5.36;84.27;98043.25;1706213;81;27367;-71
2020/12/28 10:55:51;;;;;;;16.07;9.80;;;;;;;5.37;84.29;98030.97;1742736;80;21582;-70
2020/12/28 10:58:17;;;;;;;14.53;9.30;;;;;;;5.38;84.21;98030.80;1743934;80;26915;-72
2020/12/28 11:00:43;;;;;;;14.15;9.15;;;;;;;5.45;84.13;98035.33;1747629;80;24637;-71
2020/12/28 11:03:08;;;;;;;16.52;9.90;;;;;;;5.46;84.05;98029.11;1743841;80;28383;-70
2020/12/28 11:05:34;;;;;;;15.03;9.40;;;;;;;5.53;83.81;98018.23;1743524;80;26939;-71
2020/12/28 11:08:00;;;;;;;15.32;9.60;;;;;;;5.53;83.93;98005.15;1740703;80;21851;-71
2020/12/28 11:10:26;;;;;;;13.45;8.80;;;;;;;5.66;83.39;98011.91;1745966;80;26973;-69
2020/12/28 11:12:51;;;;;;;16.55;8.93;;;;;;;5.83;83.02;98006.54;1747356;80;25446;-68
2020/12/28 11:15:17;;;;;;;13.35;7.97;;;;;;;5.76;83.10;97998.56;1743863;80;28381;-70
2020/12/28 11:17:43;;;;;;;13.00;8.55;;;;;;;5.68;83.22;97996.83;1708162;81;26812;-69
2020/12/28 11:20:09;;;;;;;13.13;8.85;;;;;;;5.65;83.47;97979.36;1743818;80;21785;-71
2020/12/28 11:22:36;;;;;;;12.90;8.78;;;;;;;5.64;83.61;97989.03;1744317;80;21623;-69
2020/12/28 11:25:03;;;;;;;13.32;8.33;;;;;;;5.66;83.65;97967.41;1742594;80;21218;-71
2020/12/28 11:27:30;;;;;;;13.98;8.63;;;;;;;5.63;83.78;97955.98;1742027;80;21226;-70